createdAt,value
2018-11-04T00:00:14.227Z,1020.65
2018-11-04T00:01:23.984Z,1020.59
2018-11-04T00:02:33.495Z,1020.6
2018-11-04T00:03:43.447Z,1020.61
2018-11-04T00:04:53.387Z,1020.58
2018-11-04T00:06:03.057Z,1020.57
2018-11-04T00:07:13.009Z,1020.55
2018-11-04T00:08:22.445Z,1020.51
2018-11-04T00:09:32.398Z,1020.53
2018-11-04T00:10:41.598Z,1020.53
2018-11-04T00:11:51.573Z,1020.51
2018-11-04T00:13:01.554Z,1020.52
2018-11-04T00:14:11.810Z,1020.49
2018-11-04T00:15:21.241Z,1020.47
2018-11-04T00:16:30.683Z,1020.42
2018-11-04T00:17:40.621Z,1020.4
2018-11-04T00:18:50.057Z,1020.35
2018-11-04T00:20:00.001Z,1020.34
2018-11-04T00:21:09.472Z,1020.34
2018-11-04T00:22:19.156Z,1020.33
2018-11-04T00:23:29.091Z,1020.33
2018-11-04T00:24:39.030Z,1020.35
2018-11-04T00:25:48.476Z,1020.35
2018-11-04T00:26:58.435Z,1020.4
2018-11-04T00:28:07.895Z,1020.37
2018-11-04T00:29:17.612Z,1020.37
2018-11-04T00:30:27.551Z,1020.4
2018-11-04T00:31:37.533Z,1020.41
2018-11-04T00:32:47.485Z,1020.37
2018-11-04T00:33:56.915Z,1020.36
2018-11-04T00:35:06.357Z,1020.35
2018-11-04T00:36:16.318Z,1020.39
2018-11-04T00:37:26.273Z,1020.35
2018-11-04T00:38:36.247Z,1020.32
2018-11-04T00:39:45.875Z,1020.35
2018-11-04T00:40:55.811Z,1020.27
2018-11-04T00:42:05.757Z,1020.31
2018-11-04T00:43:15.446Z,1020.23
2018-11-04T00:44:25.394Z,1020.24
2018-11-04T00:45:35.146Z,1020.24
2018-11-04T00:46:45.091Z,1020.15
2018-11-04T00:47:54.783Z,1020.17
2018-11-04T00:49:04.736Z,1020.15
2018-11-04T00:50:14.700Z,1020.14
2018-11-04T00:51:24.402Z,1020.14
2018-11-04T00:52:34.352Z,1020.1
2018-11-04T00:53:44.300Z,1020.1
2018-11-04T00:54:54.241Z,1020.05
2018-11-04T00:56:04.181Z,1020.05
2018-11-04T00:57:13.865Z,1020.04
2018-11-04T00:58:23.551Z,1020.04
2018-11-04T00:59:33.499Z,1020.05
2018-11-04T01:00:43.435Z,1020.01
2018-11-04T01:01:53.127Z,1020.02
2018-11-04T01:03:02.837Z,1019.97
2018-11-04T01:04:12.814Z,1019.93
2018-11-04T01:05:22.768Z,1019.91
2018-11-04T01:06:32.204Z,1019.87
2018-11-04T01:07:42.158Z,1019.86
2018-11-04T01:08:52.129Z,1019.85
2018-11-04T01:10:02.399Z,1019.86
2018-11-04T01:11:11.825Z,1019.83
2018-11-04T01:12:21.241Z,1019.76
2018-11-04T01:13:31.185Z,1019.81
2018-11-04T01:14:40.610Z,1019.75
2018-11-04T01:15:50.571Z,1019.71
2018-11-04T01:17:00.261Z,1019.69
2018-11-04T01:18:09.184Z,1019.67
2018-11-04T01:19:19.145Z,1019.65
2018-11-04T01:20:29.088Z,1019.66
2018-11-04T01:21:39.051Z,1019.65
2018-11-04T01:22:48.743Z,1019.66
2018-11-04T01:23:58.688Z,1019.62
2018-11-04T01:25:08.364Z,1019.58
2018-11-04T01:26:18.060Z,1019.59
2018-11-04T01:27:28.024Z,1019.6
2018-11-04T01:28:37.494Z,1019.59
2018-11-04T01:29:47.185Z,1019.59
2018-11-04T01:30:56.865Z,1019.63
2018-11-04T01:32:06.575Z,1019.6
2018-11-04T01:33:16.261Z,1019.58
2018-11-04T01:34:25.954Z,1019.53
2018-11-04T01:35:35.650Z,1019.51
2018-11-04T01:36:45.340Z,1019.48
2018-11-04T01:37:54.768Z,1019.49
2018-11-04T01:39:04.201Z,1019.44
2018-11-04T01:40:13.897Z,1019.5
2018-11-04T01:41:23.593Z,1019.47
2018-11-04T01:42:33.577Z,1019.52
2018-11-04T01:43:43.282Z,1019.52
2018-11-04T01:44:52.967Z,1019.51
2018-11-04T01:46:02.924Z,1019.55
2018-11-04T01:47:12.881Z,1019.5
2018-11-04T01:48:22.566Z,1019.53
2018-11-04T01:49:32.272Z,1019.51
2018-11-04T01:50:41.199Z,1019.46
2018-11-04T01:51:50.623Z,1019.47
2018-11-04T01:53:00.304Z,1019.47
2018-11-04T01:54:10.245Z,1019.46
2018-11-04T01:55:20.183Z,1019.48
2018-11-04T01:56:30.125Z,1019.49
2018-11-04T01:57:40.075Z,1019.46
2018-11-04T01:58:49.507Z,1019.43
2018-11-04T01:59:59.239Z,1019.49
2018-11-04T02:01:09.210Z,1019.41
2018-11-04T02:02:19.162Z,1019.41
2018-11-04T02:03:29.106Z,1019.38
2018-11-04T02:04:38.804Z,1019.34
2018-11-04T02:05:48.511Z,1019.35
2018-11-04T02:06:58.194Z,1019.29
2018-11-04T02:08:07.882Z,1019.3
2018-11-04T02:09:17.819Z,1019.28
2018-11-04T02:10:27.257Z,1019.24
2018-11-04T02:11:36.688Z,1019.23
2018-11-04T02:12:46.635Z,1019.22
2018-11-04T02:13:56.061Z,1019.19
2018-11-04T02:15:05.984Z,1019.14
2018-11-04T02:16:15.940Z,1019.16
2018-11-04T02:17:25.628Z,1019.17
2018-11-04T02:18:35.582Z,1019.15
2018-11-04T02:19:45.265Z,1019.09
2018-11-04T02:20:54.959Z,1019.09
2018-11-04T02:22:04.910Z,1019.07
2018-11-04T02:23:14.871Z,1019.01
2018-11-04T02:24:24.827Z,1019.02
2018-11-04T02:25:34.786Z,1018.98
2018-11-04T02:26:44.473Z,1018.95
2018-11-04T02:27:54.417Z,1018.93
2018-11-04T02:29:04.112Z,1018.97
2018-11-04T02:30:14.085Z,1018.94
2018-11-04T02:31:23.538Z,1018.93
2018-11-04T02:32:33.256Z,1018.91
2018-11-04T02:33:42.956Z,1018.9
2018-11-04T02:34:52.666Z,1018.91
2018-11-04T02:36:02.617Z,1018.86
2018-11-04T02:37:12.556Z,1018.83
2018-11-04T02:38:22.251Z,1018.85
2018-11-04T02:39:32.196Z,1018.81
2018-11-04T02:40:42.156Z,1018.82
2018-11-04T02:41:51.873Z,1018.87
2018-11-04T02:43:01.817Z,1018.82
2018-11-04T02:44:11.765Z,1018.86
2018-11-04T02:45:21.708Z,1018.84
2018-11-04T02:46:31.146Z,1018.8
2018-11-04T02:47:40.698Z,1018.81
2018-11-04T02:48:50.136Z,1018.79
2018-11-04T02:49:59.828Z,1018.78
2018-11-04T02:51:09.784Z,1018.8
2018-11-04T02:52:19.471Z,1018.73
2018-11-04T02:53:29.165Z,1018.74
2018-11-04T02:54:38.855Z,1018.78
2018-11-04T02:55:48.619Z,1018.76
2018-11-04T02:56:58.068Z,1018.76
2018-11-04T02:58:08.023Z,1018.73
2018-11-04T02:59:17.720Z,1018.72
2018-11-04T03:00:27.678Z,1018.75
2018-11-04T03:01:37.369Z,1018.69
2018-11-04T03:02:47.222Z,1018.67
2018-11-04T03:03:56.906Z,1018.73
2018-11-04T03:05:06.346Z,1018.72
2018-11-04T03:06:16.032Z,1018.64
2018-11-04T03:07:25.966Z,1018.68
2018-11-04T03:08:35.680Z,1018.65
2018-11-04T03:09:45.632Z,1018.62
2018-11-04T03:10:55.073Z,1018.6
2018-11-04T03:12:04.519Z,1018.58
2018-11-04T03:13:14.200Z,1018.51
2018-11-04T03:14:24.153Z,1018.51
2018-11-04T03:15:33.836Z,1018.49
2018-11-04T03:16:43.519Z,1018.46
2018-11-04T03:17:53.475Z,1018.48
2018-11-04T03:19:03.426Z,1018.45
2018-11-04T03:20:12.872Z,1018.44
2018-11-04T03:21:22.307Z,1018.44
2018-11-04T03:22:31.999Z,1018.47
2018-11-04T03:23:41.695Z,1018.41
2018-11-04T03:24:51.396Z,1018.42
2018-11-04T03:26:01.362Z,1018.41
2018-11-04T03:27:11.299Z,1018.38
2018-11-04T03:28:20.980Z,1018.39
2018-11-04T03:29:29.897Z,1018.4
2018-11-04T03:30:39.578Z,1018.36
2018-11-04T03:31:49.291Z,1018.32
2018-11-04T03:32:59.258Z,1018.32
2018-11-04T03:34:08.961Z,1018.32
2018-11-04T03:35:18.388Z,1018.36
2018-11-04T03:36:28.328Z,1018.34
2018-11-04T03:37:38.028Z,1018.3
2018-11-04T03:38:47.731Z,1018.37
2018-11-04T03:39:57.428Z,1018.33
2018-11-04T03:41:06.876Z,1018.33
2018-11-04T03:42:16.817Z,1018.28
2018-11-04T03:43:26.493Z,1018.27
2018-11-04T03:44:36.208Z,1018.27
2018-11-04T03:45:46.166Z,1018.26
2018-11-04T03:46:56.119Z,1018.3
2018-11-04T03:48:05.803Z,1018.26
2018-11-04T03:49:15.751Z,1018.24
2018-11-04T03:50:25.433Z,1018.26
2018-11-04T03:51:35.135Z,1018.24
2018-11-04T03:52:45.103Z,1018.22
2018-11-04T03:53:55.055Z,1018.23
2018-11-04T03:55:05.002Z,1018.15
2018-11-04T03:56:14.957Z,1018.11
2018-11-04T03:57:24.969Z,1018.08
2018-11-04T03:58:34.664Z,1018.09
2018-11-04T03:59:43.600Z,1018.07
2018-11-04T04:00:53.543Z,1018.07
2018-11-04T04:02:03.230Z,1018.05
2018-11-04T04:03:12.674Z,1018.02
2018-11-04T04:04:22.626Z,1018
2018-11-04T04:05:32.666Z,1018.02
2018-11-04T04:06:42.084Z,1018.01
2018-11-04T04:07:51.786Z,1017.99
2018-11-04T04:09:01.486Z,1017.96
2018-11-04T04:10:11.189Z,1017.92
2018-11-04T04:11:20.905Z,1017.94
2018-11-04T04:12:30.599Z,1017.87
2018-11-04T04:13:40.280Z,1017.91
2018-11-04T04:14:49.698Z,1017.88
2018-11-04T04:15:59.124Z,1017.87
2018-11-04T04:17:08.817Z,1017.84
2018-11-04T04:18:18.783Z,1017.86
2018-11-04T04:19:28.736Z,1017.82
2018-11-04T04:20:38.704Z,1017.83
2018-11-04T04:21:48.420Z,1017.77
2018-11-04T04:22:58.119Z,1017.75
2018-11-04T04:24:07.810Z,1017.73
2018-11-04T04:25:17.490Z,1017.72
2018-11-04T04:26:26.921Z,1017.74
2018-11-04T04:27:36.863Z,1017.7
2018-11-04T04:28:46.808Z,1017.71
2018-11-04T04:29:56.769Z,1017.68
2018-11-04T04:31:06.469Z,1017.66
2018-11-04T04:32:16.165Z,1017.62
2018-11-04T04:33:25.860Z,1017.67
2018-11-04T04:34:35.808Z,1017.64
2018-11-04T04:35:45.509Z,1017.67
2018-11-04T04:36:54.940Z,1017.63
2018-11-04T04:38:04.898Z,1017.62
2018-11-04T04:39:14.856Z,1017.64
2018-11-04T04:40:24.033Z,1017.59
2018-11-04T04:41:33.467Z,1017.56
2018-11-04T04:42:43.157Z,1017.61
2018-11-04T04:43:53.136Z,1017.62
2018-11-04T04:45:02.311Z,1017.66
2018-11-04T04:46:11.990Z,1017.61
2018-11-04T04:47:21.941Z,1017.62
2018-11-04T04:48:31.954Z,1017.59
2018-11-04T04:49:41.916Z,1017.61
2018-11-04T04:50:51.865Z,1017.57
2018-11-04T04:52:01.793Z,1017.53
2018-11-04T04:53:11.797Z,1017.52
2018-11-04T04:54:21.233Z,1017.55
2018-11-04T04:55:31.177Z,1017.5
2018-11-04T04:56:41.136Z,1017.54
2018-11-04T04:57:51.082Z,1017.5
2018-11-04T04:59:01.026Z,1017.52
2018-11-04T05:00:10.970Z,1017.49
2018-11-04T05:01:20.403Z,1017.48
2018-11-04T05:02:30.351Z,1017.47
2018-11-04T05:03:40.307Z,1017.46
2018-11-04T05:04:50.267Z,1017.46
2018-11-04T05:05:59.950Z,1017.41
2018-11-04T05:07:09.894Z,1017.42
2018-11-04T05:08:19.325Z,1017.4
2018-11-04T05:09:29.274Z,1017.46
2018-11-04T05:10:38.966Z,1017.38
2018-11-04T05:11:48.923Z,1017.34
2018-11-04T05:12:58.089Z,1017.3
2018-11-04T05:14:07.765Z,1017.34
2018-11-04T05:15:17.723Z,1017.3
2018-11-04T05:16:27.156Z,1017.35
2018-11-04T05:17:36.619Z,1017.33
2018-11-04T05:18:46.625Z,1017.32
2018-11-04T05:19:56.328Z,1017.28
2018-11-04T05:21:06.284Z,1017.31
2018-11-04T05:22:15.972Z,1017.29
2018-11-04T05:23:25.913Z,1017.28
2018-11-04T05:24:35.606Z,1017.23
2018-11-04T05:25:45.314Z,1017.22
2018-11-04T05:26:54.760Z,1017.24
2018-11-04T05:28:04.478Z,1017.26
2018-11-04T05:29:13.646Z,1017.22
2018-11-04T05:30:23.076Z,1017.23
2018-11-04T05:31:32.754Z,1017.23
2018-11-04T05:32:42.694Z,1017.2
2018-11-04T05:33:52.408Z,1017.2
2018-11-04T05:35:02.096Z,1017.2
2018-11-04T05:36:11.532Z,1017.19
2018-11-04T05:37:20.950Z,1017.2
2018-11-04T05:38:30.736Z,1017.22
2018-11-04T05:39:40.483Z,1017.22
2018-11-04T05:40:49.909Z,1017.2
2018-11-04T05:41:59.602Z,1017.19
2018-11-04T05:43:09.573Z,1017.23
2018-11-04T05:44:19.517Z,1017.21
2018-11-04T05:45:29.474Z,1017.17
2018-11-04T05:46:38.890Z,1017.21
2018-11-04T05:47:48.851Z,1017.25
2018-11-04T05:48:58.287Z,1017.2
2018-11-04T05:50:07.723Z,1017.24
2018-11-04T05:51:17.420Z,1017.23
2018-11-04T05:52:27.159Z,1017.16
2018-11-04T05:53:37.157Z,1017.22
2018-11-04T05:54:47.102Z,1017.26
2018-11-04T05:55:57.064Z,1017.26
2018-11-04T05:57:06.505Z,1017.27
2018-11-04T05:58:16.196Z,1017.29
2018-11-04T05:59:26.138Z,1017.29
2018-11-04T06:00:35.820Z,1017.26
2018-11-04T06:01:45.524Z,1017.28
2018-11-04T06:02:55.474Z,1017.33
2018-11-04T06:04:05.423Z,1017.36
2018-11-04T06:05:14.870Z,1017.34
2018-11-04T06:06:24.567Z,1017.3
2018-11-04T06:07:34.259Z,1017.37
2018-11-04T06:08:44.191Z,1017.38
2018-11-04T06:09:53.894Z,1017.34
2018-11-04T06:11:03.609Z,1017.36
2018-11-04T06:12:13.538Z,1017.39
2018-11-04T06:13:22.711Z,1017.42
2018-11-04T06:14:32.673Z,1017.49
2018-11-04T06:15:42.628Z,1017.49
2018-11-04T06:16:52.321Z,1017.5
2018-11-04T06:18:02.008Z,1017.52
2018-11-04T06:19:11.969Z,1017.52
2018-11-04T06:20:21.822Z,1017.52
2018-11-04T06:21:31.525Z,1017.49
2018-11-04T06:22:41.226Z,1017.47
2018-11-04T06:23:50.919Z,1017.46
2018-11-04T06:25:00.861Z,1017.48
2018-11-04T06:26:10.830Z,1017.49
2018-11-04T06:27:20.255Z,1017.5
2018-11-04T06:28:30.192Z,1017.47
2018-11-04T06:29:39.883Z,1017.45
2018-11-04T06:30:49.842Z,1017.5
2018-11-04T06:31:59.785Z,1017.45
2018-11-04T06:33:09.473Z,1017.45
2018-11-04T06:34:19.224Z,1017.47
2018-11-04T06:35:29.120Z,1017.44
2018-11-04T06:36:38.816Z,1017.46
2018-11-04T06:37:48.763Z,1017.47
2018-11-04T06:38:58.449Z,1017.46
2018-11-04T06:40:08.142Z,1017.48
2018-11-04T06:41:17.957Z,1017.46
2018-11-04T06:42:27.007Z,1017.48
2018-11-04T06:43:36.704Z,1017.44
2018-11-04T06:44:46.134Z,1017.43
2018-11-04T06:45:55.568Z,1017.43
2018-11-04T06:47:05.626Z,1017.42
2018-11-04T06:48:16.156Z,1017.43
2018-11-04T06:49:25.597Z,1017.46
2018-11-04T06:50:35.311Z,1017.44
2018-11-04T06:51:44.998Z,1017.48
2018-11-04T06:52:54.693Z,1017.45
2018-11-04T06:54:04.638Z,1017.47
2018-11-04T06:55:14.585Z,1017.46
2018-11-04T06:56:24.544Z,1017.42
2018-11-04T06:57:34.492Z,1017.46
2018-11-04T06:58:44.199Z,1017.45
2018-11-04T06:59:53.945Z,1017.45
2018-11-04T07:01:04.486Z,1017.44
2018-11-04T07:02:14.435Z,1017.45
2018-11-04T07:03:23.976Z,1017.41
2018-11-04T07:04:33.942Z,1017.4
2018-11-04T07:05:43.675Z,1017.39
2018-11-04T07:06:53.116Z,1017.39
2018-11-04T07:08:03.063Z,1017.41
2018-11-04T07:09:12.908Z,1017.37
2018-11-04T07:10:22.203Z,1017.39
2018-11-04T07:11:31.640Z,1017.38
2018-11-04T07:12:41.347Z,1017.39
2018-11-04T07:13:51.296Z,1017.4
2018-11-04T07:15:00.987Z,1017.4
2018-11-04T07:16:10.666Z,1017.43
2018-11-04T07:17:20.355Z,1017.39
2018-11-04T07:18:30.052Z,1017.33
2018-11-04T07:19:39.738Z,1017.32
2018-11-04T07:20:49.971Z,1017.32
2018-11-04T07:21:59.652Z,1017.36
2018-11-04T07:23:09.342Z,1017.35
2018-11-04T07:24:19.033Z,1017.35
2018-11-04T07:25:28.483Z,1017.31
2018-11-04T07:26:38.495Z,1017.35
2018-11-04T07:27:48.731Z,1017.34
2018-11-04T07:28:58.681Z,1017.36
2018-11-04T07:30:08.638Z,1017.33
2018-11-04T07:31:18.340Z,1017.35
2018-11-04T07:32:27.766Z,1017.34
2018-11-04T07:33:37.719Z,1017.34
2018-11-04T07:34:47.151Z,1017.34
2018-11-04T07:35:57.096Z,1017.31
2018-11-04T07:37:06.783Z,1017.35
2018-11-04T07:38:16.470Z,1017.36
2018-11-04T07:39:25.903Z,1017.38
2018-11-04T07:40:35.597Z,1017.35
2018-11-04T07:41:45.040Z,1017.35
2018-11-04T07:42:54.220Z,1017.32
2018-11-04T07:44:03.952Z,1017.35
2018-11-04T07:45:13.837Z,1017.33
2018-11-04T07:46:23.059Z,1017.27
2018-11-04T07:47:32.998Z,1017.29
2018-11-04T07:48:42.701Z,1017.27
2018-11-04T07:49:52.400Z,1017.29
2018-11-04T07:51:02.087Z,1017.32
2018-11-04T07:52:12.040Z,1017.3
2018-11-04T07:53:21.747Z,1017.28
2018-11-04T07:54:31.444Z,1017.29
2018-11-04T07:55:41.513Z,1017.31
2018-11-04T07:56:51.504Z,1017.27
2018-11-04T07:58:01.674Z,1017.25
2018-11-04T07:59:11.619Z,1017.26
2018-11-04T08:00:21.300Z,1017.27
2018-11-04T08:01:31.011Z,1017.23
2018-11-04T08:02:40.706Z,1017.22
2018-11-04T08:03:50.417Z,1017.25
2018-11-04T08:05:00.574Z,1017.21
2018-11-04T08:06:10.280Z,1017.22
2018-11-04T08:07:20.230Z,1017.2
2018-11-04T08:08:29.691Z,1017.14
2018-11-04T08:09:39.706Z,1017.11
2018-11-04T08:10:49.676Z,1017.09
2018-11-04T08:11:59.365Z,1017.06
2018-11-04T08:13:09.119Z,1017.04
2018-11-04T08:14:18.830Z,1017.04
2018-11-04T08:15:28.518Z,1017.04
2018-11-04T08:16:38.219Z,1016.97
2018-11-04T08:17:47.962Z,1017
2018-11-04T08:18:57.139Z,1016.97
2018-11-04T08:20:06.822Z,1016.91
2018-11-04T08:21:16.903Z,1016.89
2018-11-04T08:22:26.679Z,1016.95
2018-11-04T08:23:36.635Z,1016.92
2018-11-04T08:24:46.094Z,1016.95
2018-11-04T08:25:56.049Z,1016.91
2018-11-04T08:27:05.236Z,1016.91
2018-11-04T08:28:14.933Z,1016.9
2018-11-04T08:29:24.365Z,1016.88
2018-11-04T08:30:33.817Z,1016.89
2018-11-04T08:31:43.792Z,1016.83
2018-11-04T08:32:53.739Z,1016.86
2018-11-04T08:34:03.692Z,1016.92
2018-11-04T08:35:13.643Z,1016.88
2018-11-04T08:36:23.591Z,1016.84
2018-11-04T08:37:33.041Z,1016.83
2018-11-04T08:38:42.480Z,1016.86
2018-11-04T08:39:52.246Z,1016.81
2018-11-04T08:41:02.619Z,1016.77
2018-11-04T08:42:12.316Z,1016.73
2018-11-04T08:43:22.289Z,1016.77
2018-11-04T08:44:32.240Z,1016.73
2018-11-04T08:45:41.495Z,1016.74
2018-11-04T08:46:51.989Z,1016.71
2018-11-04T08:48:01.709Z,1016.69
2018-11-04T08:49:11.685Z,1016.71
2018-11-04T08:50:21.634Z,1016.62
2018-11-04T08:51:31.583Z,1016.6
2018-11-04T08:52:41.707Z,1016.58
2018-11-04T08:53:51.945Z,1016.56
2018-11-04T08:55:01.899Z,1016.58
2018-11-04T08:56:11.867Z,1016.53
2018-11-04T08:57:21.559Z,1016.5
2018-11-04T08:58:30.995Z,1016.49
2018-11-04T08:59:40.943Z,1016.47
2018-11-04T09:00:50.649Z,1016.49
2018-11-04T09:02:00.610Z,1016.45
2018-11-04T09:03:10.557Z,1016.45
2018-11-04T09:04:20.279Z,1016.49
2018-11-04T09:05:30.303Z,1016.46
2018-11-04T09:06:40.082Z,1016.47
2018-11-04T09:07:50.105Z,1016.47
2018-11-04T09:08:59.537Z,1016.5
2018-11-04T09:10:09.547Z,1016.48
2018-11-04T09:11:18.994Z,1016.4
2018-11-04T09:12:28.956Z,1016.42
2018-11-04T09:13:38.906Z,1016.45
2018-11-04T09:14:48.877Z,1016.45
2018-11-04T09:15:58.564Z,1016.46
2018-11-04T09:17:07.986Z,1016.47
2018-11-04T09:18:17.689Z,1016.47
2018-11-04T09:19:27.402Z,1016.45
2018-11-04T09:20:37.114Z,1016.44
2018-11-04T09:21:46.911Z,1016.44
2018-11-04T09:22:58.019Z,1016.5
2018-11-04T09:24:07.979Z,1016.48
2018-11-04T09:25:17.691Z,1016.47
2018-11-04T09:26:27.657Z,1016.49
2018-11-04T09:27:37.354Z,1016.44
2018-11-04T09:28:47.301Z,1016.42
2018-11-04T09:29:57.017Z,1016.43
2018-11-04T09:31:06.464Z,1016.4
2018-11-04T09:32:16.167Z,1016.41
2018-11-04T09:33:25.596Z,1016.43
2018-11-04T09:34:35.604Z,1016.41
2018-11-04T09:35:46.287Z,1016.45
2018-11-04T09:36:57.188Z,1016.4
2018-11-04T09:38:07.148Z,1016.4
2018-11-04T09:39:17.136Z,1016.38
2018-11-04T09:40:27.089Z,1016.37
2018-11-04T09:41:36.792Z,1016.34
2018-11-04T09:42:46.494Z,1016.34
2018-11-04T09:43:56.189Z,1016.35
2018-11-04T09:45:05.888Z,1016.38
2018-11-04T09:46:15.584Z,1016.35
2018-11-04T09:47:25.290Z,1016.34
2018-11-04T09:48:35.026Z,1016.34
2018-11-04T09:49:45.001Z,1016.33
2018-11-04T09:50:55.189Z,1016.33
2018-11-04T09:52:05.140Z,1016.29
2018-11-04T09:53:14.586Z,1016.26
2018-11-04T09:54:24.585Z,1016.25
2018-11-04T09:55:34.274Z,1016.25
2018-11-04T09:56:43.976Z,1016.24
2018-11-04T09:57:53.816Z,1016.24
2018-11-04T09:59:03.509Z,1016.18
2018-11-04T10:00:13.469Z,1016.18
2018-11-04T10:01:23.445Z,1016.22
2018-11-04T10:02:33.151Z,1016.18
2018-11-04T10:03:42.319Z,1016.18
2018-11-04T10:04:52.027Z,1016.15
2018-11-04T10:06:01.734Z,1016.14
2018-11-04T10:07:11.759Z,1016.11
2018-11-04T10:08:21.603Z,1016.15
2018-11-04T10:09:31.545Z,1016.11
2018-11-04T10:10:41.237Z,1016.1
2018-11-04T10:11:50.933Z,1016.16
2018-11-04T10:13:00.892Z,1016.17
2018-11-04T10:14:10.784Z,1016.14
2018-11-04T10:15:20.752Z,1016.16
2018-11-04T10:16:30.195Z,1016.14
2018-11-04T10:17:40.152Z,1016.14
2018-11-04T10:18:50.306Z,1016.12
2018-11-04T10:20:01.373Z,1016.08
2018-11-04T10:21:13.557Z,1016.1
2018-11-04T10:22:22.735Z,1016.07
2018-11-04T10:23:32.696Z,1016.04
2018-11-04T10:24:42.656Z,1015.96
2018-11-04T10:25:52.606Z,1015.94
2018-11-04T10:27:02.569Z,1015.97
2018-11-04T10:28:12.282Z,1015.92
2018-11-04T10:29:21.988Z,1015.96
2018-11-04T10:30:31.831Z,1015.95
2018-11-04T10:31:41.656Z,1015.92
2018-11-04T10:32:51.341Z,1015.93
2018-11-04T10:34:01.292Z,1015.89
2018-11-04T10:35:10.987Z,1015.87
2018-11-04T10:36:20.729Z,1015.84
2018-11-04T10:37:30.889Z,1015.8
2018-11-04T10:38:40.616Z,1015.8
2018-11-04T10:39:50.315Z,1015.77
2018-11-04T10:40:59.752Z,1015.74
2018-11-04T10:42:09.274Z,1015.7
2018-11-04T10:43:19.618Z,1015.62
2018-11-04T10:44:29.333Z,1015.65
2018-11-04T10:45:39.043Z,1015.63
2018-11-04T10:46:49.004Z,1015.61
2018-11-04T10:47:58.450Z,1015.58
2018-11-04T10:49:08.209Z,1015.57
2018-11-04T10:50:18.084Z,1015.56
2018-11-04T10:51:27.818Z,1015.52
2018-11-04T10:52:37.263Z,1015.47
2018-11-04T10:53:46.970Z,1015.5
2018-11-04T10:54:56.412Z,1015.48
2018-11-04T10:56:06.382Z,1015.51
2018-11-04T10:57:15.839Z,1015.49
2018-11-04T10:58:25.530Z,1015.47
2018-11-04T10:59:35.226Z,1015.44
2018-11-04T11:00:44.920Z,1015.45
2018-11-04T11:01:54.620Z,1015.42
2018-11-04T11:03:04.052Z,1015.44
2018-11-04T11:04:13.767Z,1015.41
2018-11-04T11:05:23.271Z,1015.41
2018-11-04T11:06:32.966Z,1015.42
2018-11-04T11:07:42.667Z,1015.38
2018-11-04T11:08:52.639Z,1015.38
2018-11-04T11:10:02.347Z,1015.42
2018-11-04T11:11:12.070Z,1015.37
2018-11-04T11:12:21.767Z,1015.4
2018-11-04T11:13:31.458Z,1015.39
2018-11-04T11:14:41.424Z,1015.36
2018-11-04T11:15:51.168Z,1015.34
2018-11-04T11:17:00.859Z,1015.29
2018-11-04T11:18:10.545Z,1015.21
2018-11-04T11:19:19.978Z,1015.21
2018-11-04T11:20:29.688Z,1015.15
2018-11-04T11:21:39.108Z,1015.2
2018-11-04T11:22:48.947Z,1015.18
2018-11-04T11:23:59.893Z,1015.17
2018-11-04T11:25:09.332Z,1015.13
2018-11-04T11:26:19.046Z,1015.1
2018-11-04T11:27:28.771Z,1015.05
2018-11-04T11:28:37.949Z,1015.05
2018-11-04T11:29:47.664Z,1015.03
2018-11-04T11:30:57.449Z,1015.03
2018-11-04T11:32:07.398Z,1015.03
2018-11-04T11:33:16.846Z,1015.04
2018-11-04T11:34:26.554Z,1015.05
2018-11-04T11:35:36.262Z,1015.07
2018-11-04T11:36:45.955Z,1015.01
2018-11-04T11:37:56.108Z,1014.97
2018-11-04T11:39:06.495Z,1014.95
2018-11-04T11:40:15.996Z,1014.9
2018-11-04T11:41:25.966Z,1014.92
2018-11-04T11:42:35.931Z,1014.9
2018-11-04T11:43:45.634Z,1014.83
2018-11-04T11:44:55.501Z,1014.77
2018-11-04T11:46:05.621Z,1014.77
2018-11-04T11:47:15.302Z,1014.72
2018-11-04T11:48:24.997Z,1014.74
2018-11-04T11:49:34.440Z,1014.71
2018-11-04T11:50:44.393Z,1014.73
2018-11-04T11:51:54.084Z,1014.75
2018-11-04T11:53:04.059Z,1014.77
2018-11-04T11:54:14.030Z,1014.75
2018-11-04T11:55:23.719Z,1014.76
2018-11-04T11:56:33.696Z,1014.75
2018-11-04T11:57:43.674Z,1014.73
2018-11-04T11:58:53.368Z,1014.73
2018-11-04T12:00:02.822Z,1014.76
2018-11-04T12:01:12.802Z,1014.68
2018-11-04T12:02:22.908Z,1014.67
2018-11-04T12:03:32.871Z,1014.66
2018-11-04T12:04:42.854Z,1014.64
2018-11-04T12:05:52.815Z,1014.6
2018-11-04T12:07:02.274Z,1014.57
2018-11-04T12:08:11.746Z,1014.56
2018-11-04T12:09:21.738Z,1014.55
2018-11-04T12:10:31.699Z,1014.58
2018-11-04T12:11:41.151Z,1014.51
2018-11-04T12:12:51.137Z,1014.45
2018-11-04T12:14:01.093Z,1014.48
2018-11-04T12:15:11.060Z,1014.5
2018-11-04T12:16:21.019Z,1014.51
2018-11-04T12:17:30.778Z,1014.5
2018-11-04T12:18:40.775Z,1014.52
2018-11-04T12:19:50.232Z,1014.5
2018-11-04T12:21:00.202Z,1014.46
2018-11-04T12:22:10.161Z,1014.46
2018-11-04T12:23:20.117Z,1014.42
2018-11-04T12:24:29.602Z,1014.41
2018-11-04T12:25:39.294Z,1014.44
2018-11-04T12:26:49.255Z,1014.42
2018-11-04T12:27:58.973Z,1014.46
2018-11-04T12:29:08.699Z,1014.38
2018-11-04T12:30:18.378Z,1014.41
2018-11-04T12:31:27.982Z,1014.36
2018-11-04T12:32:37.940Z,1014.39
2018-11-04T12:33:47.645Z,1014.32
2018-11-04T12:34:57.361Z,1014.32
2018-11-04T12:36:07.621Z,1014.3
2018-11-04T12:37:17.578Z,1014.27
2018-11-04T12:38:27.545Z,1014.23
2018-11-04T12:39:36.981Z,1014.2
2018-11-04T12:40:46.682Z,1014.2
2018-11-04T12:41:56.674Z,1014.16
2018-11-04T12:43:06.665Z,1014.17
2018-11-04T12:44:16.117Z,1014.12
2018-11-04T12:45:25.808Z,1014.12
2018-11-04T12:46:35.310Z,1014.15
2018-11-04T12:47:45.060Z,1014.11
2018-11-04T12:48:54.757Z,1014.07
2018-11-04T12:50:04.722Z,1014.08
2018-11-04T12:51:14.428Z,1014.09
2018-11-04T12:52:24.269Z,1014.13
2018-11-04T12:53:34.001Z,1014.1
2018-11-04T12:54:43.702Z,1014.14
2018-11-04T12:55:53.148Z,1014.09
2018-11-04T12:57:02.598Z,1014.08
2018-11-04T12:58:12.034Z,1014.14
2018-11-04T12:59:21.740Z,1014.11
2018-11-04T13:00:31.461Z,1014.04
2018-11-04T13:01:41.175Z,1014.06
2018-11-04T13:02:50.768Z,1014.01
2018-11-04T13:04:00.460Z,1013.99
2018-11-04T13:05:10.186Z,1013.98
2018-11-04T13:06:19.879Z,1013.9
2018-11-04T13:07:29.565Z,1013.84
2018-11-04T13:08:39.267Z,1013.88
2018-11-04T13:09:48.453Z,1013.88
2018-11-04T13:10:58.223Z,1013.86
2018-11-04T13:12:08.179Z,1013.82
2018-11-04T13:13:17.617Z,1013.84
2018-11-04T13:14:27.590Z,1013.91
2018-11-04T13:15:37.275Z,1013.9
2018-11-04T13:16:46.717Z,1013.89
2018-11-04T13:17:56.407Z,1013.93
2018-11-04T13:19:06.107Z,1013.89
2018-11-04T13:20:16.073Z,1013.85
2018-11-04T13:21:25.597Z,1013.78
2018-11-04T13:22:35.415Z,1013.85
2018-11-04T13:23:45.397Z,1013.79
2018-11-04T13:24:55.383Z,1013.77
2018-11-04T13:26:05.333Z,1013.77
2018-11-04T13:27:14.815Z,1013.73
2018-11-04T13:28:24.537Z,1013.73
2018-11-04T13:29:34.246Z,1013.71
2018-11-04T13:30:43.700Z,1013.65
2018-11-04T13:31:53.406Z,1013.66
2018-11-04T13:33:03.353Z,1013.69
2018-11-04T13:34:13.066Z,1013.65
2018-11-04T13:35:23.044Z,1013.65
2018-11-04T13:36:32.213Z,1013.69
2018-11-04T13:37:41.916Z,1013.66
2018-11-04T13:38:51.873Z,1013.65
2018-11-04T13:40:01.577Z,1013.66
2018-11-04T13:41:11.556Z,1013.63
2018-11-04T13:42:20.487Z,1013.64
2018-11-04T13:43:30.186Z,1013.63
2018-11-04T13:44:39.620Z,1013.57
2018-11-04T13:45:49.596Z,1013.61
2018-11-04T13:46:59.288Z,1013.66
2018-11-04T13:48:08.991Z,1013.63
2018-11-04T13:49:18.526Z,1013.62
2018-11-04T13:50:28.533Z,1013.62
2018-11-04T13:51:38.228Z,1013.59
2018-11-04T13:52:47.917Z,1013.64
2018-11-04T13:53:57.880Z,1013.69
2018-11-04T13:55:07.841Z,1013.66
2018-11-04T13:56:17.288Z,1013.72
2018-11-04T13:57:27.243Z,1013.75
2018-11-04T13:58:36.411Z,1013.69
2018-11-04T13:59:46.099Z,1013.7
2018-11-04T14:00:55.780Z,1013.69
2018-11-04T14:02:05.469Z,1013.73
2018-11-04T14:03:15.410Z,1013.68
2018-11-04T14:04:25.384Z,1013.63
2018-11-04T14:05:35.088Z,1013.69
2018-11-04T14:06:44.783Z,1013.67